sensor_id;sensor_type;location;lat;lon;timestamp;pressure;altitude;pressure_sealevel;temperature;humidity
23339;BME280;11841;49.368;20.962;2023-06-04T00:01:46;96171.78;;;5.75;75.49
23339;BME280;11841;49.368;20.962;2023-06-04T00:04:31;96170.50;;;5.71;75.49
23339;BME280;11841;49.368;20.962;2023-06-04T00:07:16;96172.47;;;5.69;75.72
23339;BME280;11841;49.368;20.962;2023-06-04T00:10:03;96171.00;;;5.67;75.65
23339;BME280;11841;49.368;20.962;2023-06-04T00:12:49;96171.53;;;5.62;75.68
23339;BME280;11841;49.368;20.962;2023-06-04T00:15:34;96168.44;;;5.59;75.68
23339;BME280;11841;49.368;20.962;2023-06-04T00:18:20;96163.53;;;5.56;75.80
23339;BME280;11841;49.368;20.962;2023-06-04T00:21:05;96157.09;;;5.58;75.59
23339;BME280;11841;49.368;20.962;2023-06-04T00:23:51;96158.00;;;5.51;75.50
23339;BME280;11841;49.368;20.962;2023-06-04T00:26:36;96155.06;;;5.46;75.90
23339;BME280;11841;49.368;20.962;2023-06-04T00:29:21;96152.59;;;5.44;75.81
23339;BME280;11841;49.368;20.962;2023-06-04T00:32:07;96142.44;;;5.41;75.93
23339;BME280;11841;49.368;20.962;2023-06-04T00:34:54;96145.94;;;5.34;75.84
23339;BME280;11841;49.368;20.962;2023-06-04T00:37:40;96135.28;;;5.27;76.29
23339;BME280;11841;49.368;20.962;2023-06-04T00:40:25;96149.28;;;5.20;76.31
23339;BME280;11841;49.368;20.962;2023-06-04T00:43:10;96144.75;;;5.14;76.40
23339;BME280;11841;49.368;20.962;2023-06-04T00:45:55;96142.13;;;5.14;76.24
23339;BME280;11841;49.368;20.962;2023-06-04T00:48:41;96142.75;;;5.16;76.46
23339;BME280;11841;49.368;20.962;2023-06-04T00:51:30;96137.81;;;5.13;76.54
23339;BME280;11841;49.368;20.962;2023-06-04T00:54:16;96138.34;;;5.08;76.38
23339;BME280;11841;49.368;20.962;2023-06-04T00:57:04;96140.50;;;5.05;76.50
23339;BME280;11841;49.368;20.962;2023-06-04T00:59:49;96148.09;;;5.00;76.38
23339;BME280;11841;49.368;20.962;2023-06-04T01:02:38;96146.00;;;4.95;76.33
23339;BME280;11841;49.368;20.962;2023-06-04T01:05:30;96135.00;;;4.91;76.50
23339;BME280;11841;49.368;20.962;2023-06-04T01:08:19;96132.88;;;4.87;76.78
23339;BME280;11841;49.368;20.962;2023-06-04T01:11:05;96148.81;;;4.85;76.57
23339;BME280;11841;49.368;20.962;2023-06-04T01:13:50;96136.00;;;4.82;76.83
23339;BME280;11841;49.368;20.962;2023-06-04T01:16:39;96140.78;;;4.79;76.54
23339;BME280;11841;49.368;20.962;2023-06-04T01:22:54;96148.03;;;4.77;76.75
23339;BME280;11841;49.368;20.962;2023-06-04T01:25:42;96137.03;;;4.73;77.06
23339;BME280;11841;49.368;20.962;2023-06-04T01:28:30;96141.66;;;4.71;76.75
23339;BME280;11841;49.368;20.962;2023-06-04T01:31:17;96145.44;;;4.69;77.10
23339;BME280;11841;49.368;20.962;2023-06-04T01:34:03;96140.53;;;4.66;76.89
23339;BME280;11841;49.368;20.962;2023-06-04T01:36:48;96143.31;;;4.64;76.88
23339;BME280;11841;49.368;20.962;2023-06-04T01:39:33;96144.81;;;4.59;77.28
23339;BME280;11841;49.368;20.962;2023-06-04T01:42:19;96142.69;;;4.54;77.16
23339;BME280;11841;49.368;20.962;2023-06-04T01:45:04;96140.41;;;4.51;77.30
23339;BME280;11841;49.368;20.962;2023-06-04T01:47:51;96132.38;;;4.45;77.37
23339;BME280;11841;49.368;20.962;2023-06-04T01:50:36;96131.88;;;4.41;77.14
23339;BME280;11841;49.368;20.962;2023-06-04T01:53:21;96134.53;;;4.41;77.11
23339;BME280;11841;49.368;20.962;2023-06-04T01:56:07;96140.78;;;4.40;77.48
23339;BME280;11841;49.368;20.962;2023-06-04T01:58:53;96134.69;;;4.40;77.64
23339;BME280;11841;49.368;20.962;2023-06-04T02:01:38;96128.00;;;4.37;77.61
23339;BME280;11841;49.368;20.962;2023-06-04T02:04:24;96132.25;;;4.38;77.51
23339;BME280;11841;49.368;20.962;2023-06-04T02:07:10;96130.97;;;4.34;77.80
23339;BME280;11841;49.368;20.962;2023-06-04T02:09:56;96137.69;;;4.29;77.66
23339;BME280;11841;49.368;20.962;2023-06-04T02:12:53;96126.34;;;4.28;77.98
23339;BME280;11841;49.368;20.962;2023-06-04T02:15:39;96124.38;;;4.30;77.49
23339;BME280;11841;49.368;20.962;2023-06-04T02:18:24;96136.50;;;4.31;77.87
23339;BME280;11841;49.368;20.962;2023-06-04T02:21:09;96133.56;;;4.26;77.40
23339;BME280;11841;49.368;20.962;2023-06-04T02:23:57;96122.75;;;4.21;78.11
23339;BME280;11841;49.368;20.962;2023-06-04T02:26:42;96129.34;;;4.17;77.62
23339;BME280;11841;49.368;20.962;2023-06-04T02:29:28;96132.13;;;4.16;77.65
23339;BME280;11841;49.368;20.962;2023-06-04T02:32:13;96128.88;;;4.14;78.00
23339;BME280;11841;49.368;20.962;2023-06-04T02:34:59;96136.09;;;4.12;77.62
23339;BME280;11841;49.368;20.962;2023-06-04T02:37:44;96143.28;;;4.10;78.06
23339;BME280;11841;49.368;20.962;2023-06-04T02:40:29;96142.47;;;4.09;78.48
23339;BME280;11841;49.368;20.962;2023-06-04T02:43:15;96137.88;;;4.11;78.78
23339;BME280;11841;49.368;20.962;2023-06-04T02:46:00;96141.81;;;4.15;77.96
23339;BME280;11841;49.368;20.962;2023-06-04T02:48:46;96140.50;;;4.11;77.89
23339;BME280;11841;49.368;20.962;2023-06-04T02:51:31;96141.84;;;4.07;78.51
23339;BME280;11841;49.368;20.962;2023-06-04T02:54:18;96136.91;;;4.04;77.88
23339;BME280;11841;49.368;20.962;2023-06-04T02:57:03;96133.00;;;4.00;78.88
23339;BME280;11841;49.368;20.962;2023-06-04T02:59:49;96130.53;;;3.99;78.28
23339;BME280;11841;49.368;20.962;2023-06-04T03:02:34;96139.38;;;3.98;78.55
23339;BME280;11841;49.368;20.962;2023-06-04T03:05:19;96134.28;;;3.96;78.87
23339;BME280;11841;49.368;20.962;2023-06-04T03:08:05;96134.28;;;3.96;79.00
23339;BME280;11841;49.368;20.962;2023-06-04T03:10:51;96124.47;;;3.98;78.84
23339;BME280;11841;49.368;20.962;2023-06-04T03:13:38;96130.66;;;3.97;79.15
23339;BME280;11841;49.368;20.962;2023-06-04T03:16:23;96129.03;;;3.96;79.43
23339;BME280;11841;49.368;20.962;2023-06-04T03:19:09;96127.41;;;4.03;79.41
23339;BME280;11841;49.368;20.962;2023-06-04T03:21:56;96127.22;;;4.05;79.21
23339;BME280;11841;49.368;20.962;2023-06-04T03:24:42;96123.78;;;4.04;79.32
23339;BME280;11841;49.368;20.962;2023-06-04T03:27:27;96121.81;;;4.06;79.91
23339;BME280;11841;49.368;20.962;2023-06-04T03:30:13;96127.03;;;4.14;79.49
23339;BME280;11841;49.368;20.962;2023-06-04T03:32:58;96126.72;;;4.17;79.39
23339;BME280;11841;49.368;20.962;2023-06-04T03:35:43;96129.00;;;4.20;80.27
23339;BME280;11841;49.368;20.962;2023-06-04T03:38:28;96128.31;;;4.26;79.83
23339;BME280;11841;49.368;20.962;2023-06-04T03:41:14;96134.53;;;4.33;80.25
23339;BME280;11841;49.368;20.962;2023-06-04T03:43:59;96135.88;;;4.37;79.95
23339;BME280;11841;49.368;20.962;2023-06-04T03:46:45;96143.41;;;4.40;80.46
23339;BME280;11841;49.368;20.962;2023-06-04T03:49:30;96141.25;;;4.44;81.11
23339;BME280;11841;49.368;20.962;2023-06-04T03:52:15;96139.41;;;4.52;81.08
23339;BME280;11841;49.368;20.962;2023-06-04T03:55:01;96139.38;;;4.60;81.15
23339;BME280;11841;49.368;20.962;2023-06-04T03:57:46;96137.38;;;4.70;81.52
23339;BME280;11841;49.368;20.962;2023-06-04T04:00:31;96139.34;;;4.76;82.13
23339;BME280;11841;49.368;20.962;2023-06-04T04:03:17;96143.94;;;4.74;82.93
23339;BME280;11841;49.368;20.962;2023-06-04T04:06:03;96140.34;;;4.67;83.87
23339;BME280;11841;49.368;20.962;2023-06-04T04:08:48;96138.41;;;4.61;84.36
23339;BME280;11841;49.368;20.962;2023-06-04T04:11:33;96129.16;;;4.73;84.33
23339;BME280;11841;49.368;20.962;2023-06-04T04:14:18;96130.75;;;4.82;84.67
23339;BME280;11841;49.368;20.962;2023-06-04T04:17:04;96131.41;;;4.84;84.79
23339;BME280;11841;49.368;20.962;2023-06-04T04:19:49;96133.38;;;4.82;85.56
23339;BME280;11841;49.368;20.962;2023-06-04T04:22:35;96140.78;;;4.79;86.76
23339;BME280;11841;49.368;20.962;2023-06-04T04:25:20;96136.72;;;4.76;87.50
23339;BME280;11841;49.368;20.962;2023-06-04T04:28:05;96137.50;;;4.77;88.40
23339;BME280;11841;49.368;20.962;2023-06-04T04:30:54;96136.38;;;4.79;89.24
23339;BME280;11841;49.368;20.962;2023-06-04T04:33:41;96132.06;;;4.86;89.06
23339;BME280;11841;49.368;20.962;2023-06-04T04:36:26;96128.38;;;4.95;89.41
23339;BME280;11841;49.368;20.962;2023-06-04T04:39:12;96127.66;;;5.10;88.87
23339;BME280;11841;49.368;20.962;2023-06-04T04:41:57;96120.84;;;5.23;88.17
23339;BME280;11841;49.368;20.962;2023-06-04T04:44:42;96115.81;;;5.36;87.66
23339;BME280;11841;49.368;20.962;2023-06-04T04:47:32;96114.25;;;5.50;87.42
23339;BME280;11841;49.368;20.962;2023-06-04T04:50:17;96114.88;;;5.60;87.87
23339;BME280;11841;49.368;20.962;2023-06-04T04:53:02;96116.41;;;5.69;88.59
23339;BME280;11841;49.368;20.962;2023-06-04T04:55:48;96116.81;;;5.80;88.28
23339;BME280;11841;49.368;20.962;2023-06-04T04:58:33;96118.22;;;5.91;88.48
23339;BME280;11841;49.368;20.962;2023-06-04T05:01:18;96112.75;;;6.00;88.63
23339;BME280;11841;49.368;20.962;2023-06-04T05:04:04;96114.09;;;6.11;87.49
23339;BME280;11841;49.368;20.962;2023-06-04T05:06:53;96114.66;;;6.21;88.35
23339;BME280;11841;49.368;20.962;2023-06-04T05:09:40;96112.41;;;6.33;89.20
23339;BME280;11841;49.368;20.962;2023-06-04T05:12:25;96108.16;;;6.46;88.73
23339;BME280;11841;49.368;20.962;2023-06-04T05:15:12;96111.34;;;6.56;88.45
23339;BME280;11841;49.368;20.962;2023-06-04T05:17:57;96117.78;;;6.68;88.97
23339;BME280;11841;49.368;20.962;2023-06-04T05:20:49;96111.03;;;6.80;88.01
23339;BME280;11841;49.368;20.962;2023-06-04T05:23:34;96107.28;;;6.89;88.57
23339;BME280;11841;49.368;20.962;2023-06-04T05:26:22;96105.81;;;7.01;88.81
23339;BME280;11841;49.368;20.962;2023-06-04T05:29:10;96103.97;;;7.16;88.85
23339;BME280;11841;49.368;20.962;2023-06-04T05:31:55;96096.81;;;7.31;88.27
23339;BME280;11841;49.368;20.962;2023-06-04T05:34:41;96103.22;;;7.44;87.68
23339;BME280;11841;49.368;20.962;2023-06-04T05:37:26;96097.84;;;7.52;86.89
23339;BME280;11841;49.368;20.962;2023-06-04T05:40:14;96089.63;;;7.61;87.99
23339;BME280;11841;49.368;20.962;2023-06-04T05:42:59;96100.72;;;7.78;87.52
23339;BME280;11841;49.368;20.962;2023-06-04T05:45:44;96103.47;;;7.91;87.20
23339;BME280;11841;49.368;20.962;2023-06-04T05:48:30;96097.69;;;8.02;86.62
23339;BME280;11841;49.368;20.962;2023-06-04T05:51:15;96104.69;;;8.16;86.68
23339;BME280;11841;49.368;20.962;2023-06-04T05:54:00;96102.81;;;8.31;86.48
23339;BME280;11841;49.368;20.962;2023-06-04T05:56:46;96099.63;;;8.42;85.43
23339;BME280;11841;49.368;20.962;2023-06-04T05:59:32;96106.19;;;8.52;85.08
23339;BME280;11841;49.368;20.962;2023-06-04T06:02:17;96110.75;;;8.65;85.08
23339;BME280;11841;49.368;20.962;2023-06-04T06:05:03;96102.25;;;8.76;84.75
23339;BME280;11841;49.368;20.962;2023-06-04T06:07:48;96103.16;;;8.96;84.40
23339;BME280;11841;49.368;20.962;2023-06-04T06:10:34;96103.22;;;9.09;83.71
23339;BME280;11841;49.368;20.962;2023-06-04T06:13:20;96106.53;;;9.18;83.48
23339;BME280;11841;49.368;20.962;2023-06-04T06:16:05;96098.81;;;9.29;84.03
23339;BME280;11841;49.368;20.962;2023-06-04T06:18:51;96104.16;;;9.55;84.28
23339;BME280;11841;49.368;20.962;2023-06-04T06:21:36;96096.47;;;9.87;83.92
23339;BME280;11841;49.368;20.962;2023-06-04T06:24:22;96097.09;;;9.95;82.57
23339;BME280;11841;49.368;20.962;2023-06-04T06:27:07;96096.06;;;9.96;82.86
23339;BME280;11841;49.368;20.962;2023-06-04T06:29:53;96091.78;;;10.02;83.69
23339;BME280;11841;49.368;20.962;2023-06-04T06:32:38;96093.47;;;10.09;83.24
23339;BME280;11841;49.368;20.962;2023-06-04T06:35:24;96097.53;;;10.25;83.42
23339;BME280;11841;49.368;20.962;2023-06-04T06:38:10;96101.78;;;10.52;81.47
23339;BME280;11841;49.368;20.962;2023-06-04T06:40:55;96092.56;;;10.74;79.57
23339;BME280;11841;49.368;20.962;2023-06-04T06:43:41;96090.03;;;10.92;78.04
23339;BME280;11841;49.368;20.962;2023-06-04T06:46:26;96089.56;;;11.08;76.61
23339;BME280;11841;49.368;20.962;2023-06-04T06:49:11;96090.97;;;11.17;76.08
23339;BME280;11841;49.368;20.962;2023-06-04T06:51:56;96095.75;;;11.40;74.56
23339;BME280;11841;49.368;20.962;2023-06-04T06:54:42;96097.50;;;11.65;73.27
23339;BME280;11841;49.368;20.962;2023-06-04T06:57:27;96101.66;;;11.79;72.16
23339;BME280;11841;49.368;20.962;2023-06-04T07:00:13;96093.88;;;11.84;71.43
23339;BME280;11841;49.368;20.962;2023-06-04T07:02:58;96095.03;;;11.95;71.85
23339;BME280;11841;49.368;20.962;2023-06-04T07:05:43;96093.34;;;12.00;71.93
23339;BME280;11841;49.368;20.962;2023-06-04T07:08:29;96097.28;;;12.23;70.25
23339;BME280;11841;49.368;20.962;2023-06-04T07:11:14;96096.59;;;12.52;67.84
23339;BME280;11841;49.368;20.962;2023-06-04T07:14:01;96100.94;;;12.71;67.04
23339;BME280;11841;49.368;20.962;2023-06-04T07:16:50;96088.34;;;12.78;65.99
23339;BME280;11841;49.368;20.962;2023-06-04T07:19:35;96095.22;;;12.85;66.05
23339;BME280;11841;49.368;20.962;2023-06-04T07:22:20;96091.31;;;12.88;66.04
23339;BME280;11841;49.368;20.962;2023-06-04T07:25:06;96095.06;;;12.98;66.03
23339;BME280;11841;49.368;20.962;2023-06-04T07:27:51;96094.91;;;13.18;64.45
23339;BME280;11841;49.368;20.962;2023-06-04T07:30:38;96093.38;;;13.22;64.33
23339;BME280;11841;49.368;20.962;2023-06-04T07:33:24;96087.66;;;13.25;64.59
23339;BME280;11841;49.368;20.962;2023-06-04T07:36:13;96088.19;;;13.45;63.28
23339;BME280;11841;49.368;20.962;2023-06-04T07:38:59;96091.50;;;13.59;62.60
23339;BME280;11841;49.368;20.962;2023-06-04T07:41:45;96093.97;;;13.72;60.95
23339;BME280;11841;49.368;20.962;2023-06-04T07:44:30;96090.09;;;13.86;61.44
23339;BME280;11841;49.368;20.962;2023-06-04T07:47:15;96095.78;;;13.89;62.35
23339;BME280;11841;49.368;20.962;2023-06-04T07:50:01;96090.09;;;13.97;61.67
23339;BME280;11841;49.368;20.962;2023-06-04T07:52:48;96087.22;;;14.10;60.50
23339;BME280;11841;49.368;20.962;2023-06-04T07:55:33;96089.59;;;14.18;60.78
23339;BME280;11841;49.368;20.962;2023-06-04T07:58:18;96079.44;;;14.27;60.51
23339;BME280;11841;49.368;20.962;2023-06-04T08:01:04;96084.16;;;14.36;59.49
23339;BME280;11841;49.368;20.962;2023-06-04T08:03:50;96094.03;;;14.47;59.25
23339;BME280;11841;49.368;20.962;2023-06-04T08:06:35;96091.47;;;14.52;59.16
23339;BME280;11841;49.368;20.962;2023-06-04T08:09:21;96094.75;;;14.78;57.87
23339;BME280;11841;49.368;20.962;2023-06-04T08:12:06;96094.13;;;14.99;56.16
23339;BME280;11841;49.368;20.962;2023-06-04T08:14:54;96090.97;;;15.02;57.43
23339;BME280;11841;49.368;20.962;2023-06-04T08:17:42;96087.63;;;15.06;57.65
23339;BME280;11841;49.368;20.962;2023-06-04T08:20:27;96099.88;;;15.19;57.17
23339;BME280;11841;49.368;20.962;2023-06-04T08:23:12;96094.78;;;15.40;55.63
23339;BME280;11841;49.368;20.962;2023-06-04T08:25:58;96093.00;;;15.46;55.87
23339;BME280;11841;49.368;20.962;2023-06-04T08:28:44;96093.41;;;15.54;56.27
23339;BME280;11841;49.368;20.962;2023-06-04T08:31:30;96100.25;;;15.62;55.64
23339;BME280;11841;49.368;20.962;2023-06-04T08:34:15;96096.41;;;15.69;55.32
23339;BME280;11841;49.368;20.962;2023-06-04T08:37:01;96100.06;;;15.80;55.11
23339;BME280;11841;49.368;20.962;2023-06-04T08:39:46;96101.31;;;15.89;54.50
23339;BME280;11841;49.368;20.962;2023-06-04T08:42:40;96099.97;;;16.03;54.34
23339;BME280;11841;49.368;20.962;2023-06-04T08:45:26;96099.31;;;16.13;54.89
23339;BME280;11841;49.368;20.962;2023-06-04T08:48:12;96104.50;;;16.19;54.31
23339;BME280;11841;49.368;20.962;2023-06-04T08:50:59;96100.31;;;16.23;54.25
23339;BME280;11841;49.368;20.962;2023-06-04T08:53:46;96103.81;;;16.40;52.29
23339;BME280;11841;49.368;20.962;2023-06-04T08:56:35;96103.56;;;16.58;51.77
23339;BME280;11841;49.368;20.962;2023-06-04T08:59:22;96098.47;;;16.57;51.78
23339;BME280;11841;49.368;20.962;2023-06-04T09:02:08;96102.63;;;16.64;51.13
23339;BME280;11841;49.368;20.962;2023-06-04T09:04:53;96102.19;;;16.72;50.50
23339;BME280;11841;49.368;20.962;2023-06-04T09:07:40;96098.19;;;16.75;51.90
23339;BME280;11841;49.368;20.962;2023-06-04T09:10:29;96100.81;;;16.86;51.56
23339;BME280;11841;49.368;20.962;2023-06-04T09:13:15;96103.06;;;16.95;51.34
23339;BME280;11841;49.368;20.962;2023-06-04T09:16:02;96097.59;;;17.06;50.88
23339;BME280;11841;49.368;20.962;2023-06-04T09:18:48;96097.72;;;17.16;50.38
23339;BME280;11841;49.368;20.962;2023-06-04T09:21:34;96103.78;;;17.28;50.21
23339;BME280;11841;49.368;20.962;2023-06-04T09:24:20;96104.66;;;17.34;49.23
23339;BME280;11841;49.368;20.962;2023-06-04T09:27:10;96100.97;;;17.40;49.23
23339;BME280;11841;49.368;20.962;2023-06-04T09:29:57;96109.97;;;17.50;50.48
23339;BME280;11841;49.368;20.962;2023-06-04T09:32:43;96102.81;;;17.56;50.21
23339;BME280;11841;49.368;20.962;2023-06-04T09:35:28;96103.97;;;17.65;49.36
23339;BME280;11841;49.368;20.962;2023-06-04T09:38:13;96108.16;;;17.77;48.53
23339;BME280;11841;49.368;20.962;2023-06-04T09:40:59;96108.75;;;17.84;48.16
23339;BME280;11841;49.368;20.962;2023-06-04T09:43:46;96117.13;;;17.88;47.36
23339;BME280;11841;49.368;20.962;2023-06-04T09:46:31;96107.44;;;17.87;47.12
23339;BME280;11841;49.368;20.962;2023-06-04T09:49:17;96111.44;;;17.84;46.87
23339;BME280;11841;49.368;20.962;2023-06-04T09:52:02;96115.47;;;17.87;46.68
23339;BME280;11841;49.368;20.962;2023-06-04T09:54:48;96104.81;;;17.92;46.52
23339;BME280;11841;49.368;20.962;2023-06-04T09:57:33;96116.44;;;18.02;46.08
23339;BME280;11841;49.368;20.962;2023-06-04T10:00:23;96100.00;;;17.94;45.63
23339;BME280;11841;49.368;20.962;2023-06-04T10:03:10;96098.09;;;17.89;46.09
23339;BME280;11841;49.368;20.962;2023-06-04T10:06:03;96110.84;;;18.04;46.54
23339;BME280;11841;49.368;20.962;2023-06-04T10:08:49;96100.75;;;18.16;47.63
23339;BME280;11841;49.368;20.962;2023-06-04T10:11:46;96104.59;;;18.25;46.68
23339;BME280;11841;49.368;20.962;2023-06-04T10:14:41;96101.72;;;18.32;46.77
23339;BME280;11841;49.368;20.962;2023-06-04T10:17:27;96099.44;;;18.45;45.21
23339;BME280;11841;49.368;20.962;2023-06-04T10:20:14;96091.41;;;18.50;44.42
23339;BME280;11841;49.368;20.962;2023-06-04T10:23:00;96104.63;;;18.57;44.76
23339;BME280;11841;49.368;20.962;2023-06-04T10:25:48;96096.66;;;18.67;44.52
23339;BME280;11841;49.368;20.962;2023-06-04T10:28:34;96099.59;;;18.65;44.43
23339;BME280;11841;49.368;20.962;2023-06-04T10:31:19;96108.03;;;18.84;43.91
23339;BME280;11841;49.368;20.962;2023-06-04T10:34:05;96107.31;;;18.93;43.07
23339;BME280;11841;49.368;20.962;2023-06-04T10:36:50;96111.09;;;18.97;40.76
23339;BME280;11841;49.368;20.962;2023-06-04T10:39:35;96106.78;;;18.96;39.95
23339;BME280;11841;49.368;20.962;2023-06-04T10:42:21;96104.31;;;18.85;41.21
23339;BME280;11841;49.368;20.962;2023-06-04T10:45:07;96093.63;;;18.95;41.04
23339;BME280;11841;49.368;20.962;2023-06-04T10:48:00;96099.06;;;19.05;41.98
23339;BME280;11841;49.368;20.962;2023-06-04T10:50:53;96094.03;;;19.18;41.63
23339;BME280;11841;49.368;20.962;2023-06-04T10:53:38;96099.78;;;19.32;40.11
23339;BME280;11841;49.368;20.962;2023-06-04T10:56:28;96105.47;;;19.41;40.07
23339;BME280;11841;49.368;20.962;2023-06-04T10:59:15;96097.28;;;19.20;38.79
23339;BME280;11841;49.368;20.962;2023-06-04T11:02:08;96106.97;;;19.26;39.55
23339;BME280;11841;49.368;20.962;2023-06-04T11:05:02;96108.69;;;19.38;40.89
23339;BME280;11841;49.368;20.962;2023-06-04T11:07:50;96109.78;;;19.52;40.19
23339;BME280;11841;49.368;20.962;2023-06-04T11:10:38;96111.44;;;19.53;39.25
23339;BME280;11841;49.368;20.962;2023-06-04T11:13:24;96099.22;;;19.30;38.47
23339;BME280;11841;49.368;20.962;2023-06-04T11:16:17;96109.63;;;19.21;39.17
23339;BME280;11841;49.368;20.962;2023-06-04T11:19:04;96097.09;;;19.37;40.91
23339;BME280;11841;49.368;20.962;2023-06-04T11:21:49;96095.59;;;19.56;40.16
23339;BME280;11841;49.368;20.962;2023-06-04T11:24:35;96096.97;;;19.74;39.90
23339;BME280;11841;49.368;20.962;2023-06-04T11:27:21;96113.13;;;19.84;39.64
23339;BME280;11841;49.368;20.962;2023-06-04T11:30:21;96110.97;;;19.76;38.79
23339;BME280;11841;49.368;20.962;2023-06-04T11:33:07;96112.59;;;19.77;39.82
23339;BME280;11841;49.368;20.962;2023-06-04T11:35:52;96118.03;;;19.87;39.80
23339;BME280;11841;49.368;20.962;2023-06-04T11:38:37;96123.16;;;19.93;39.83
23339;BME280;11841;49.368;20.962;2023-06-04T11:41:27;96128.75;;;19.77;39.94
23339;BME280;11841;49.368;20.962;2023-06-04T11:44:13;96123.88;;;19.74;39.30
23339;BME280;11841;49.368;20.962;2023-06-04T11:46:59;96119.03;;;19.71;39.78
23339;BME280;11841;49.368;20.962;2023-06-04T11:49:45;96119.31;;;19.79;40.00
23339;BME280;11841;49.368;20.962;2023-06-04T11:52:31;96119.03;;;19.71;39.66
23339;BME280;11841;49.368;20.962;2023-06-04T11:55:17;96103.19;;;19.84;39.57
23339;BME280;11841;49.368;20.962;2023-06-04T11:58:02;96101.34;;;20.00;40.05
23339;BME280;11841;49.368;20.962;2023-06-04T12:00:48;96104.59;;;19.97;38.99
23339;BME280;11841;49.368;20.962;2023-06-04T12:03:35;96102.97;;;20.01;38.68
23339;BME280;11841;49.368;20.962;2023-06-04T12:06:22;96107.28;;;20.07;38.70
23339;BME280;11841;49.368;20.962;2023-06-04T12:09:07;96105.19;;;20.19;38.84
23339;BME280;11841;49.368;20.962;2023-06-04T12:12:03;96113.84;;;20.31;38.74
23339;BME280;11841;49.368;20.962;2023-06-04T12:14:57;96107.84;;;20.14;38.75
23339;BME280;11841;49.368;20.962;2023-06-04T12:17:50;96101.38;;;20.15;39.48
23339;BME280;11841;49.368;20.962;2023-06-04T12:20:40;96107.09;;;20.23;39.21
23339;BME280;11841;49.368;20.962;2023-06-04T12:23:26;96104.94;;;20.15;38.89
23339;BME280;11841;49.368;20.962;2023-06-04T12:26:22;96104.13;;;20.30;39.65
23339;BME280;11841;49.368;20.962;2023-06-04T12:29:18;96109.78;;;20.28;38.87
23339;BME280;11841;49.368;20.962;2023-06-04T12:32:07;96101.16;;;20.26;41.02
23339;BME280;11841;49.368;20.962;2023-06-04T12:34:56;96098.75;;;20.45;39.96
23339;BME280;11841;49.368;20.962;2023-06-04T12:37:41;96103.06;;;20.31;39.95
23339;BME280;11841;49.368;20.962;2023-06-04T12:40:27;96108.72;;;20.39;39.46
23339;BME280;11841;49.368;20.962;2023-06-04T12:43:12;96109.00;;;20.48;40.46
23339;BME280;11841;49.368;20.962;2023-06-04T12:45:57;96111.69;;;20.63;40.09
23339;BME280;11841;49.368;20.962;2023-06-04T12:48:43;96106.31;;;20.68;39.76
23339;BME280;11841;49.368;20.962;2023-06-04T12:51:28;96105.50;;;20.63;39.33
23339;BME280;11841;49.368;20.962;2023-06-04T12:54:13;96109.25;;;20.52;38.95
23339;BME280;11841;49.368;20.962;2023-06-04T12:56:59;96114.91;;;20.55;39.82
23339;BME280;11841;49.368;20.962;2023-06-04T12:59:45;96107.09;;;20.79;39.38
23339;BME280;11841;49.368;20.962;2023-06-04T13:02:30;96106.28;;;20.98;39.14
23339;BME280;11841;49.368;20.962;2023-06-04T13:05:16;96104.66;;;20.82;38.75
23339;BME280;11841;49.368;20.962;2023-06-04T13:08:01;96108.47;;;20.66;38.93
23339;BME280;11841;49.368;20.962;2023-06-04T13:10:48;96114.38;;;20.68;39.51
23339;BME280;11841;49.368;20.962;2023-06-04T13:13:33;96097.13;;;20.74;40.70
23339;BME280;11841;49.368;20.962;2023-06-04T13:16:18;96105.72;;;20.96;39.82
23339;BME280;11841;49.368;20.962;2023-06-04T13:19:05;96114.38;;;21.03;39.25
23339;BME280;11841;49.368;20.962;2023-06-04T13:21:50;96109.00;;;20.98;39.57
23339;BME280;11841;49.368;20.962;2023-06-04T13:24:36;96097.66;;;21.01;40.29
23339;BME280;11841;49.368;20.962;2023-06-04T13:27:21;96098.13;;;21.28;39.40
23339;BME280;11841;49.368;20.962;2023-06-04T13:30:07;96096.81;;;21.26;39.32
23339;BME280;11841;49.368;20.962;2023-06-04T13:32:52;96097.56;;;21.31;39.13
23339;BME280;11841;49.368;20.962;2023-06-04T13:35:38;96105.91;;;21.45;39.37
23339;BME280;11841;49.368;20.962;2023-06-04T13:38:23;96102.88;;;21.62;39.06
23339;BME280;11841;49.368;20.962;2023-06-04T13:41:09;96106.69;;;21.50;38.44
23339;BME280;11841;49.368;20.962;2023-06-04T13:43:55;96091.94;;;21.28;38.31
23339;BME280;11841;49.368;20.962;2023-06-04T13:46:41;96101.13;;;21.22;38.63
23339;BME280;11841;49.368;20.962;2023-06-04T13:49:26;96097.06;;;21.34;38.02
23339;BME280;11841;49.368;20.962;2023-06-04T13:52:12;96100.75;;;21.53;38.68
23339;BME280;11841;49.368;20.962;2023-06-04T13:54:57;96096.94;;;21.65;37.93
23339;BME280;11841;49.368;20.962;2023-06-04T13:57:46;96093.13;;;21.66;38.23
23339;BME280;11841;49.368;20.962;2023-06-04T14:00:33;96098.53;;;21.66;38.32
23339;BME280;11841;49.368;20.962;2023-06-04T14:03:18;96099.09;;;21.63;38.01
23339;BME280;11841;49.368;20.962;2023-06-04T14:06:04;96094.53;;;21.63;38.67
23339;BME280;11841;49.368;20.962;2023-06-04T14:08:50;96092.59;;;21.74;37.85
23339;BME280;11841;49.368;20.962;2023-06-04T14:11:38;96089.06;;;21.73;37.41
23339;BME280;11841;49.368;20.962;2023-06-04T14:14:23;96087.69;;;21.76;37.95
23339;BME280;11841;49.368;20.962;2023-06-04T14:17:09;96079.59;;;21.81;37.80
23339;BME280;11841;49.368;20.962;2023-06-04T14:19:54;96084.22;;;21.75;37.75
23339;BME280;11841;49.368;20.962;2023-06-04T14:22:40;96076.84;;;21.96;37.84
23339;BME280;11841;49.368;20.962;2023-06-04T14:25:25;96076.22;;;22.09;38.68
23339;BME280;11841;49.368;20.962;2023-06-04T14:28:10;96064.91;;;22.02;37.71
23339;BME280;11841;49.368;20.962;2023-06-04T14:30:55;96076.34;;;21.89;37.91
23339;BME280;11841;49.368;20.962;2023-06-04T14:33:43;96078.81;;;21.80;38.31
23339;BME280;11841;49.368;20.962;2023-06-04T14:36:28;96081.44;;;21.95;38.37
23339;BME280;11841;49.368;20.962;2023-06-04T14:39:13;96082.72;;;22.03;37.87